VOI183 MMTJ-MMMX
Flight info
| Callsign | VOI183 |
|---|---|
| Flight time | 2h 45m |
| Altitude | 41000 |
| Route | TEVIR2B TEVIR UT18 GOLFO UQ103 NABAS UT49 DGO UJ5 ZCL UT130 DARAN DARAN3B |
| Aircraft | B772/H-SDE2E3FGHIJ5LORVWXY/LB1D1 |
Departure
| Time | 2026-05-08 23:50 |
|---|---|
| Airport | General Abelardo L. Rodriguez International Airport (MMTJ) |
Arrival
| Time | 2026-05-09 02:35 |
|---|---|
| Airport | Mexico City Benito Juárez International Airport (MMMX) |
| Time | Latitude | Longitude | Altitude | Speed | Heading |
|---|---|---|---|---|---|
| 2026-05-08 23:11 | 32.54517 | -116.97388 | 473 ft | 0 kts | 303° |
| 2026-05-08 23:35 | 32.54514 | -116.97383 | 473 ft | 1 kts | 304° |
| 2026-05-08 23:36 | 32.54513 | -116.97382 | 473 ft | 0 kts | 303° |
| 2026-05-08 23:36 | 32.54505 | -116.97368 | 473 ft | 2 kts | 303° |
| 2026-05-08 23:36 | 32.54497 | -116.97353 | 473 ft | 2 kts | 303° |
| 2026-05-08 23:37 | 32.54489 | -116.97338 | 473 ft | 2 kts | 306° |
| 2026-05-08 23:37 | 32.54479 | -116.97326 | 473 ft | 2 kts | 328° |
| 2026-05-08 23:37 | 32.54465 | -116.97318 | 473 ft | 2 kts | 345° |
| 2026-05-08 23:37 | 32.54450 | -116.97315 | 473 ft | 2 kts | 2° |
| 2026-05-08 23:38 | 32.54435 | -116.97318 | 473 ft | 2 kts | 20° |
| 2026-05-08 23:38 | 32.54422 | -116.97326 | 473 ft | 2 kts | 30° |
| 2026-05-08 23:38 | 32.54409 | -116.97336 | 473 ft | 2 kts | 39° |
| 2026-05-08 23:38 | 32.54399 | -116.97347 | 473 ft | 2 kts | 49° |
| 2026-05-08 23:39 | 32.54390 | -116.97360 | 473 ft | 2 kts | 58° |
| 2026-05-08 23:39 | 32.54383 | -116.97376 | 473 ft | 2 kts | 68° |
| 2026-05-08 23:39 | 32.54378 | -116.97392 | 473 ft | 2 kts | 77° |
| 2026-05-08 23:39 | 32.54376 | -116.97410 | 473 ft | 2 kts | 87° |
| 2026-05-08 23:40 | 32.54376 | -116.97427 | 473 ft | 2 kts | 96° |
| 2026-05-08 23:40 | 32.54378 | -116.97445 | 473 ft | 2 kts | 99° |
| 2026-05-08 23:40 | 32.54381 | -116.97463 | 474 ft | 2 kts | 98° |
| 2026-05-08 23:40 | 32.54382 | -116.97476 | 474 ft | 0 kts | 98° |
| 2026-05-08 23:41 | 32.54382 | -116.97477 | 474 ft | 0 kts | 98° |
| 2026-05-08 23:41 | 32.54382 | -116.97476 | 474 ft | 0 kts | 98° |
| 2026-05-08 23:43 | 32.54382 | -116.97474 | 474 ft | 1 kts | 97° |
| 2026-05-08 23:43 | 32.54378 | -116.97443 | 473 ft | 6 kts | 108° |
| 2026-05-08 23:43 | 32.54340 | -116.97408 | 473 ft | 7 kts | 139° |
| 2026-05-08 23:43 | 32.54319 | -116.97345 | 473 ft | 9 kts | 99° |
| 2026-05-08 23:44 | 32.54310 | -116.97279 | 472 ft | 7 kts | 98° |
| 2026-05-08 23:44 | 32.54303 | -116.97221 | 472 ft | 7 kts | 99° |
| 2026-05-08 23:44 | 32.54294 | -116.97153 | 472 ft | 9 kts | 98° |
| 2026-05-08 23:44 | 32.54285 | -116.97083 | 472 ft | 8 kts | 98° |
| 2026-05-08 23:45 | 32.54275 | -116.97005 | 473 ft | 10 kts | 98° |
| 2026-05-08 23:45 | 32.54263 | -116.96914 | 474 ft | 11 kts | 99° |
| 2026-05-08 23:45 | 32.54250 | -116.96820 | 475 ft | 12 kts | 99° |
| 2026-05-08 23:45 | 32.54236 | -116.96717 | 477 ft | 13 kts | 99° |
| 2026-05-08 23:46 | 32.54223 | -116.96609 | 478 ft | 13 kts | 97° |
| 2026-05-08 23:46 | 32.54210 | -116.96494 | 480 ft | 14 kts | 98° |
| 2026-05-08 23:46 | 32.54195 | -116.96384 | 482 ft | 12 kts | 99° |
| 2026-05-08 23:46 | 32.54182 | -116.96289 | 483 ft | 11 kts | 99° |
| 2026-05-08 23:47 | 32.54168 | -116.96202 | 484 ft | 10 kts | 101° |
| 2026-05-08 23:47 | 32.54150 | -116.96161 | 484 ft | 4 kts | 142° |
| 2026-05-08 23:47 | 32.54122 | -116.96151 | 484 ft | 3 kts | 183° |
| 2026-05-08 23:47 | 32.54084 | -116.96157 | 483 ft | 7 kts | 187° |
| 2026-05-08 23:48 | 32.54031 | -116.96165 | 483 ft | 6 kts | 189° |
| 2026-05-08 23:48 | 32.54004 | -116.96200 | 483 ft | 6 kts | 263° |
| 2026-05-08 23:48 | 32.54005 | -116.96224 | 483 ft | 0 kts | 278° |
| 2026-05-08 23:48 | 32.54006 | -116.96236 | 483 ft | 7 kts | 277° |
| 2026-05-08 23:49 | 32.54035 | -116.96476 | 480 ft | 61 kts | 278° |
| 2026-05-08 23:49 | 32.54136 | -116.97221 | 472 ft | 120 kts | 279° |
| 2026-05-08 23:49 | 32.54286 | -116.98370 | 557 ft | 157 kts | 278° |
| 2026-05-08 23:49 | 32.54385 | -116.99663 | 1057 ft | 160 kts | 269° |
| 2026-05-08 23:50 | 32.54205 | -117.00971 | 1736 ft | 165 kts | 254° |
| 2026-05-08 23:50 | 32.53740 | -117.02220 | 2212 ft | 172 kts | 240° |
| 2026-05-08 23:50 | 32.52892 | -117.03262 | 2598 ft | 185 kts | 214° |
| 2026-05-08 23:50 | 32.51696 | -117.03960 | 2969 ft | 198 kts | 200° |
| 2026-05-08 23:51 | 32.50317 | -117.04138 | 3453 ft | 206 kts | 172° |
| 2026-05-08 23:51 | 32.48962 | -117.03477 | 3909 ft | 214 kts | 147° |
| 2026-05-08 23:51 | 32.47723 | -117.02472 | 4355 ft | 224 kts | 136° |
| 2026-05-08 23:51 | 32.46744 | -117.01023 | 4767 ft | 235 kts | 122° |
| 2026-05-08 23:52 | 32.45842 | -116.99306 | 5057 ft | 254 kts | 120° |
| 2026-05-08 23:52 | 32.44899 | -116.97462 | 5372 ft | 272 kts | 120° |
| 2026-05-08 23:52 | 32.43898 | -116.95505 | 5817 ft | 283 kts | 121° |
| 2026-05-08 23:52 | 32.42874 | -116.93506 | 6507 ft | 284 kts | 121° |
| 2026-05-08 23:53 | 32.41848 | -116.91505 | 7177 ft | 286 kts | 120° |
| 2026-05-08 23:53 | 32.40817 | -116.89494 | 7763 ft | 290 kts | 120° |
| 2026-05-08 23:53 | 32.39767 | -116.87450 | 8352 ft | 292 kts | 120° |
| 2026-05-08 23:53 | 32.38720 | -116.85414 | 9133 ft | 289 kts | 120° |
| 2026-05-08 23:54 | 32.37685 | -116.83403 | 9812 ft | 289 kts | 120° |
| 2026-05-08 23:54 | 32.36639 | -116.81372 | 10317 ft | 297 kts | 120° |
| 2026-05-08 23:54 | 32.35524 | -116.79211 | 10527 ft | 315 kts | 120° |
| 2026-05-08 23:55 | 32.33058 | -116.74571 | 10931 ft | 351 kts | 122° |
| 2026-05-08 23:55 | 32.31656 | -116.72156 | 11152 ft | 366 kts | 123° |
| 2026-05-08 23:55 | 32.30175 | -116.69609 | 11361 ft | 381 kts | 123° |
| 2026-05-08 23:55 | 32.28688 | -116.67044 | 11799 ft | 386 kts | 122° |
| 2026-05-08 23:56 | 32.27158 | -116.64402 | 12428 ft | 388 kts | 122° |
| 2026-05-08 23:56 | 32.25638 | -116.61777 | 13059 ft | 392 kts | 122° |
| 2026-05-08 23:56 | 32.24086 | -116.59097 | 13728 ft | 396 kts | 122° |
| 2026-05-08 23:56 | 32.22539 | -116.56428 | 14434 ft | 399 kts | 122° |
| 2026-05-08 23:57 | 32.20973 | -116.53726 | 15141 ft | 403 kts | 122° |
| 2026-05-08 23:57 | 32.19530 | -116.50890 | 15898 ft | 406 kts | 115° |
| 2026-05-08 23:57 | 32.18297 | -116.47875 | 16635 ft | 410 kts | 113° |
| 2026-05-08 23:57 | 32.17072 | -116.44822 | 17357 ft | 414 kts | 113° |
| 2026-05-08 23:58 | 32.15840 | -116.41756 | 18078 ft | 418 kts | 113° |
| 2026-05-08 23:58 | 32.14593 | -116.38656 | 18800 ft | 422 kts | 113° |
| 2026-05-08 23:58 | 32.13324 | -116.35506 | 19494 ft | 427 kts | 113° |
| 2026-05-08 23:58 | 32.12051 | -116.32349 | 20206 ft | 431 kts | 114° |
| 2026-05-08 23:59 | 32.10756 | -116.29142 | 20910 ft | 435 kts | 114° |
| 2026-05-08 23:59 | 32.09461 | -116.25938 | 21573 ft | 439 kts | 114° |
| 2026-05-08 23:59 | 32.08138 | -116.22667 | 22244 ft | 443 kts | 114° |
| 2026-05-08 23:59 | 32.06814 | -116.19398 | 22885 ft | 448 kts | 114° |
| 2026-05-09 00:00 | 32.05467 | -116.16074 | 23545 ft | 452 kts | 114° |
| 2026-05-09 00:00 | 32.04120 | -116.12754 | 24178 ft | 456 kts | 114° |
| 2026-05-09 00:00 | 32.02742 | -116.09362 | 24768 ft | 461 kts | 114° |
| 2026-05-09 00:00 | 32.01359 | -116.05962 | 25359 ft | 465 kts | 114° |
| 2026-05-09 00:01 | 31.99968 | -116.02544 | 25936 ft | 469 kts | 114° |
| 2026-05-09 00:01 | 31.98554 | -115.99072 | 26500 ft | 473 kts | 114° |
| 2026-05-09 00:01 | 31.97127 | -115.95573 | 27033 ft | 477 kts | 115° |
| 2026-05-09 00:01 | 31.95681 | -115.92030 | 27580 ft | 481 kts | 114° |
| 2026-05-09 00:02 | 31.94230 | -115.88478 | 28099 ft | 485 kts | 115° |
| 2026-05-09 00:02 | 31.92783 | -115.84940 | 28596 ft | 489 kts | 115° |
| 2026-05-09 00:02 | 31.91294 | -115.81308 | 29087 ft | 493 kts | 116° |
| 2026-05-09 00:02 | 31.89553 | -115.77760 | 29573 ft | 497 kts | 122° |
| 2026-05-09 00:03 | 31.87667 | -115.74353 | 30086 ft | 499 kts | 123° |
| 2026-05-09 00:03 | 31.85763 | -115.70948 | 30763 ft | 498 kts | 123° |
| 2026-05-09 00:03 | 31.83882 | -115.67587 | 31522 ft | 494 kts | 123° |
| 2026-05-09 00:03 | 31.81977 | -115.64187 | 32208 ft | 492 kts | 123° |
| 2026-05-09 00:04 | 31.80107 | -115.60850 | 32815 ft | 491 kts | 123° |
| 2026-05-09 00:04 | 31.78238 | -115.57517 | 33400 ft | 490 kts | 123° |
| 2026-05-09 00:04 | 31.76370 | -115.54188 | 34055 ft | 488 kts | 123° |
| 2026-05-09 00:04 | 31.74525 | -115.50903 | 34676 ft | 487 kts | 123° |
| 2026-05-09 00:05 | 31.72664 | -115.47591 | 35293 ft | 486 kts | 123° |
| 2026-05-09 00:05 | 31.70803 | -115.44282 | 35884 ft | 485 kts | 123° |
| 2026-05-09 00:05 | 31.68941 | -115.40974 | 36453 ft | 484 kts | 123° |
| 2026-05-09 00:05 | 31.67103 | -115.37711 | 36881 ft | 484 kts | 122° |
| 2026-05-09 00:06 | 31.65233 | -115.34392 | 37290 ft | 485 kts | 123° |
| 2026-05-09 00:06 | 31.63397 | -115.31140 | 37657 ft | 485 kts | 123° |
| 2026-05-09 00:06 | 31.61534 | -115.27841 | 38008 ft | 486 kts | 123° |
| 2026-05-09 00:06 | 31.59667 | -115.24538 | 38337 ft | 486 kts | 123° |
| 2026-05-09 00:07 | 31.57796 | -115.21230 | 38656 ft | 487 kts | 123° |
| 2026-05-09 00:07 | 31.55918 | -115.17913 | 38964 ft | 487 kts | 123° |
| 2026-05-09 00:07 | 31.54069 | -115.14651 | 39301 ft | 486 kts | 123° |
| 2026-05-09 00:07 | 31.52193 | -115.11343 | 39563 ft | 486 kts | 123° |
| 2026-05-09 00:08 | 31.50341 | -115.08079 | 39822 ft | 485 kts | 123° |
| 2026-05-09 00:08 | 31.48464 | -115.04775 | 40088 ft | 484 kts | 123° |
| 2026-05-09 00:08 | 31.46612 | -115.01517 | 40291 ft | 484 kts | 123° |
| 2026-05-09 00:08 | 31.44752 | -114.98250 | 40477 ft | 484 kts | 123° |
| 2026-05-09 00:09 | 31.42888 | -114.94975 | 40666 ft | 484 kts | 123° |
| 2026-05-09 00:09 | 31.41011 | -114.91684 | 40809 ft | 485 kts | 123° |
| 2026-05-09 00:09 | 31.39151 | -114.88422 | 40812 ft | 486 kts | 123° |
| 2026-05-09 00:10 | 31.35413 | -114.81878 | 40820 ft | 485 kts | 123° |
| 2026-05-09 00:10 | 31.31650 | -114.75302 | 40808 ft | 485 kts | 123° |
| 2026-05-09 00:11 | 31.27914 | -114.68783 | 40817 ft | 484 kts | 123° |
| 2026-05-09 00:11 | 31.24181 | -114.62279 | 40813 ft | 484 kts | 123° |
| 2026-05-09 00:12 | 31.20441 | -114.55776 | 40823 ft | 483 kts | 123° |
| 2026-05-09 00:12 | 31.16710 | -114.49298 | 40818 ft | 483 kts | 124° |
| 2026-05-09 00:13 | 31.12963 | -114.42803 | 40822 ft | 484 kts | 124° |
| 2026-05-09 00:13 | 31.09193 | -114.36281 | 40823 ft | 484 kts | 124° |
| 2026-05-09 00:14 | 31.05364 | -114.29868 | 40826 ft | 482 kts | 128° |
| 2026-05-09 00:14 | 31.01205 | -114.23789 | 40823 ft | 483 kts | 129° |
| 2026-05-09 00:15 | 30.97007 | -114.17645 | 40822 ft | 483 kts | 129° |
| 2026-05-09 00:15 | 30.92845 | -114.11533 | 40825 ft | 481 kts | 129° |
| 2026-05-09 00:16 | 30.88721 | -114.05469 | 40824 ft | 481 kts | 129° |
| 2026-05-09 00:16 | 30.84568 | -113.99365 | 40823 ft | 482 kts | 129° |
| 2026-05-09 00:17 | 30.80410 | -113.93257 | 40828 ft | 483 kts | 129° |
| 2026-05-09 00:17 | 30.76230 | -113.87125 | 40830 ft | 483 kts | 129° |
| 2026-05-09 00:18 | 30.72057 | -113.81010 | 40829 ft | 483 kts | 129° |
| 2026-05-09 00:18 | 30.67893 | -113.74918 | 40830 ft | 484 kts | 129° |
| 2026-05-09 00:19 | 30.63731 | -113.68836 | 40843 ft | 485 kts | 129° |
| 2026-05-09 00:19 | 30.59531 | -113.62711 | 40846 ft | 484 kts | 129° |
| 2026-05-09 00:20 | 30.55346 | -113.56615 | 40847 ft | 483 kts | 129° |
| 2026-05-09 00:20 | 30.51168 | -113.50539 | 40846 ft | 484 kts | 129° |
| 2026-05-09 00:21 | 30.46976 | -113.44452 | 40839 ft | 484 kts | 129° |
| 2026-05-09 00:21 | 30.42789 | -113.38382 | 40836 ft | 485 kts | 129° |
| 2026-05-09 00:22 | 30.38573 | -113.32278 | 40832 ft | 485 kts | 130° |
| 2026-05-09 00:22 | 30.34350 | -113.26176 | 40826 ft | 485 kts | 130° |
| 2026-05-09 00:23 | 30.30163 | -113.20133 | 40829 ft | 485 kts | 130° |
| 2026-05-09 00:23 | 30.25926 | -113.14027 | 40835 ft | 485 kts | 130° |
| 2026-05-09 00:24 | 30.21723 | -113.07980 | 40824 ft | 486 kts | 130° |
| 2026-05-09 00:24 | 30.17494 | -113.01905 | 40835 ft | 487 kts | 130° |
| 2026-05-09 00:25 | 30.13259 | -112.95830 | 40844 ft | 485 kts | 130° |
| 2026-05-09 00:25 | 30.09001 | -112.89732 | 40845 ft | 487 kts | 130° |
| 2026-05-09 00:26 | 30.04760 | -112.83667 | 40844 ft | 486 kts | 130° |
| 2026-05-09 00:26 | 30.00525 | -112.77621 | 40845 ft | 486 kts | 130° |
| 2026-05-09 00:27 | 29.96284 | -112.71574 | 40845 ft | 487 kts | 130° |
| 2026-05-09 00:27 | 29.92035 | -112.65525 | 40864 ft | 487 kts | 130° |
| 2026-05-09 00:28 | 29.87764 | -112.59454 | 40883 ft | 487 kts | 130° |
| 2026-05-09 00:28 | 29.83500 | -112.53403 | 40890 ft | 487 kts | 130° |
| 2026-05-09 00:29 | 29.79239 | -112.47363 | 40902 ft | 486 kts | 130° |
| 2026-05-09 00:29 | 29.74989 | -112.41350 | 40897 ft | 486 kts | 130° |
| 2026-05-09 00:30 | 29.70720 | -112.35317 | 40900 ft | 486 kts | 130° |
| 2026-05-09 00:30 | 29.66465 | -112.29314 | 40889 ft | 487 kts | 131° |
| 2026-05-09 00:31 | 29.62200 | -112.23305 | 40898 ft | 487 kts | 131° |
| 2026-05-09 00:31 | 29.57918 | -112.17283 | 40898 ft | 487 kts | 131° |
| 2026-05-09 00:32 | 29.53629 | -112.11259 | 40908 ft | 487 kts | 131° |
| 2026-05-09 00:32 | 29.49369 | -112.05283 | 40908 ft | 486 kts | 131° |
| 2026-05-09 00:33 | 29.45087 | -111.99285 | 40913 ft | 487 kts | 131° |
| 2026-05-09 00:33 | 29.40809 | -111.93304 | 40900 ft | 486 kts | 131° |
| 2026-05-09 00:34 | 29.36527 | -111.87324 | 40888 ft | 487 kts | 131° |
| 2026-05-09 00:34 | 29.32213 | -111.81310 | 40880 ft | 488 kts | 131° |
| 2026-05-09 00:35 | 29.27912 | -111.75321 | 40866 ft | 488 kts | 131° |
| 2026-05-09 00:35 | 29.23620 | -111.69354 | 40858 ft | 488 kts | 131° |
| 2026-05-09 00:36 | 29.19288 | -111.63341 | 40847 ft | 489 kts | 131° |
| 2026-05-09 00:36 | 29.14976 | -111.57363 | 40851 ft | 488 kts | 131° |
| 2026-05-09 00:37 | 29.10673 | -111.51407 | 40841 ft | 488 kts | 131° |
| 2026-05-09 00:37 | 29.06356 | -111.45440 | 40838 ft | 488 kts | 131° |
| 2026-05-09 00:38 | 29.02037 | -111.39479 | 40840 ft | 489 kts | 132° |
| 2026-05-09 00:38 | 28.97675 | -111.33469 | 40826 ft | 489 kts | 133° |
| 2026-05-09 00:39 | 28.93364 | -111.27535 | 40828 ft | 489 kts | 132° |
| 2026-05-09 00:39 | 28.89005 | -111.21545 | 40830 ft | 489 kts | 133° |
| 2026-05-09 00:40 | 28.84661 | -111.15584 | 40835 ft | 491 kts | 133° |
| 2026-05-09 00:40 | 28.80306 | -111.09617 | 40840 ft | 490 kts | 133° |
| 2026-05-09 00:41 | 28.73794 | -111.00710 | 40844 ft | 490 kts | 133° |
| 2026-05-09 00:41 | 28.69455 | -110.94787 | 40858 ft | 490 kts | 133° |
| 2026-05-09 00:42 | 28.65079 | -110.88822 | 40869 ft | 490 kts | 133° |
| 2026-05-09 00:42 | 28.60710 | -110.82877 | 40864 ft | 491 kts | 133° |
| 2026-05-09 00:43 | 28.56349 | -110.76950 | 40861 ft | 491 kts | 133° |
| 2026-05-09 00:43 | 28.51947 | -110.70976 | 40856 ft | 493 kts | 133° |
| 2026-05-09 00:44 | 28.47566 | -110.65038 | 40859 ft | 494 kts | 134° |
| 2026-05-09 00:44 | 28.43154 | -110.59068 | 40856 ft | 493 kts | 134° |
| 2026-05-09 00:45 | 28.38772 | -110.53145 | 40851 ft | 492 kts | 134° |
| 2026-05-09 00:45 | 28.34371 | -110.47206 | 40858 ft | 493 kts | 134° |
| 2026-05-09 00:46 | 28.29960 | -110.41262 | 40851 ft | 494 kts | 134° |
| 2026-05-09 00:46 | 28.25533 | -110.35304 | 40855 ft | 492 kts | 134° |
| 2026-05-09 00:47 | 28.21137 | -110.29397 | 40849 ft | 492 kts | 135° |
| 2026-05-09 00:47 | 28.16740 | -110.23497 | 40854 ft | 494 kts | 135° |
| 2026-05-09 00:48 | 28.12305 | -110.17553 | 40839 ft | 492 kts | 135° |
| 2026-05-09 00:48 | 28.07884 | -110.11638 | 40826 ft | 495 kts | 135° |
| 2026-05-09 00:49 | 28.03450 | -110.05713 | 40823 ft | 492 kts | 135° |
| 2026-05-09 00:49 | 27.99021 | -109.99803 | 40808 ft | 494 kts | 135° |
| 2026-05-09 00:50 | 27.94594 | -109.93904 | 40817 ft | 495 kts | 136° |
| 2026-05-09 00:50 | 27.90147 | -109.87986 | 40809 ft | 495 kts | 136° |
| 2026-05-09 00:51 | 27.85676 | -109.82045 | 40828 ft | 495 kts | 136° |
| 2026-05-09 00:51 | 27.81250 | -109.76172 | 40836 ft | 495 kts | 136° |
| 2026-05-09 00:52 | 27.76776 | -109.70242 | 40850 ft | 494 kts | 136° |
| 2026-05-09 00:52 | 27.72327 | -109.64356 | 40867 ft | 497 kts | 136° |
| 2026-05-09 00:53 | 27.67861 | -109.58453 | 40883 ft | 496 kts | 136° |
| 2026-05-09 00:53 | 27.63375 | -109.52533 | 40889 ft | 497 kts | 136° |
| 2026-05-09 00:54 | 27.58880 | -109.46609 | 40880 ft | 497 kts | 137° |
| 2026-05-09 00:54 | 27.54410 | -109.40726 | 40867 ft | 496 kts | 137° |
| 2026-05-09 00:55 | 27.49937 | -109.34847 | 40851 ft | 497 kts | 138° |
| 2026-05-09 00:55 | 27.45426 | -109.28925 | 40838 ft | 496 kts | 138° |
| 2026-05-09 00:56 | 27.40925 | -109.23028 | 40835 ft | 497 kts | 138° |
| 2026-05-09 00:56 | 27.36464 | -109.17186 | 40860 ft | 494 kts | 138° |
| 2026-05-09 00:57 | 27.31971 | -109.11316 | 40867 ft | 497 kts | 139° |
| 2026-05-09 00:57 | 27.27496 | -109.05472 | 40856 ft | 496 kts | 139° |
| 2026-05-09 00:58 | 27.22981 | -108.99589 | 40846 ft | 496 kts | 139° |
| 2026-05-09 00:58 | 27.18476 | -108.93722 | 40899 ft | 496 kts | 139° |
| 2026-05-09 00:59 | 27.13975 | -108.87872 | 40923 ft | 497 kts | 139° |
| 2026-05-09 00:59 | 27.09479 | -108.82034 | 40935 ft | 496 kts | 139° |
| 2026-05-09 01:00 | 27.04979 | -108.76197 | 40915 ft | 493 kts | 140° |
| 2026-05-09 01:00 | 27.00490 | -108.70387 | 40909 ft | 496 kts | 140° |
| 2026-05-09 01:01 | 26.95984 | -108.64560 | 40897 ft | 495 kts | 140° |
| 2026-05-09 01:01 | 26.91465 | -108.58723 | 40891 ft | 495 kts | 140° |
| 2026-05-09 01:02 | 26.86945 | -108.52896 | 40893 ft | 498 kts | 140° |
| 2026-05-09 01:02 | 26.82425 | -108.47072 | 40894 ft | 495 kts | 140° |
| 2026-05-09 01:03 | 26.77914 | -108.41270 | 40898 ft | 497 kts | 140° |
| 2026-05-09 01:03 | 26.73427 | -108.35503 | 40918 ft | 492 kts | 140° |
| 2026-05-09 01:04 | 26.68903 | -108.29702 | 40918 ft | 493 kts | 140° |
| 2026-05-09 01:04 | 26.64380 | -108.23908 | 40961 ft | 494 kts | 140° |
| 2026-05-09 01:05 | 26.59902 | -108.18175 | 41005 ft | 491 kts | 141° |
| 2026-05-09 01:06 | 26.53648 | -108.08991 | 41047 ft | 499 kts | 134° |
| 2026-05-09 01:06 | 26.49640 | -108.02622 | 41062 ft | 503 kts | 134° |
| 2026-05-09 01:07 | 26.45643 | -107.96329 | 41078 ft | 499 kts | 134° |
| 2026-05-09 01:07 | 26.41618 | -107.90035 | 41087 ft | 499 kts | 134° |
| 2026-05-09 01:08 | 26.37568 | -107.83727 | 41118 ft | 499 kts | 134° |
| 2026-05-09 01:08 | 26.33530 | -107.77451 | 41088 ft | 498 kts | 134° |
| 2026-05-09 01:09 | 26.29503 | -107.71208 | 41068 ft | 496 kts | 135° |
| 2026-05-09 01:09 | 26.25488 | -107.64996 | 41095 ft | 497 kts | 134° |
| 2026-05-09 01:10 | 26.21454 | -107.58766 | 41165 ft | 497 kts | 134° |
| 2026-05-09 01:10 | 26.17398 | -107.52507 | 41172 ft | 496 kts | 135° |
| 2026-05-09 01:11 | 26.13374 | -107.46308 | 41158 ft | 496 kts | 135° |
| 2026-05-09 01:11 | 26.09333 | -107.40095 | 41169 ft | 498 kts | 135° |
| 2026-05-09 01:12 | 26.05250 | -107.33823 | 41149 ft | 499 kts | 135° |
| 2026-05-09 01:12 | 26.01198 | -107.27605 | 41144 ft | 498 kts | 135° |
| 2026-05-09 01:13 | 25.97152 | -107.21407 | 41187 ft | 497 kts | 135° |
| 2026-05-09 01:13 | 25.93106 | -107.15215 | 41210 ft | 496 kts | 135° |
| 2026-05-09 01:14 | 25.89047 | -107.09013 | 41277 ft | 495 kts | 135° |
| 2026-05-09 01:14 | 25.85006 | -107.02837 | 41258 ft | 497 kts | 135° |
| 2026-05-09 01:15 | 25.80952 | -106.96626 | 41292 ft | 498 kts | 135° |
| 2026-05-09 01:15 | 25.76881 | -106.90399 | 41285 ft | 498 kts | 135° |
| 2026-05-09 01:16 | 25.72824 | -106.84200 | 41309 ft | 497 kts | 135° |
| 2026-05-09 01:16 | 25.68769 | -106.78014 | 41314 ft | 496 kts | 135° |
| 2026-05-09 01:17 | 25.62733 | -106.68822 | 41325 ft | 494 kts | 135° |
| 2026-05-09 01:17 | 25.58675 | -106.62654 | 41340 ft | 496 kts | 135° |
| 2026-05-09 01:18 | 25.54600 | -106.56466 | 41338 ft | 496 kts | 135° |
| 2026-05-09 01:18 | 25.50560 | -106.50338 | 41371 ft | 492 kts | 135° |
| 2026-05-09 01:19 | 25.46518 | -106.44218 | 41373 ft | 494 kts | 135° |
| 2026-05-09 01:19 | 25.42467 | -106.38091 | 41378 ft | 494 kts | 135° |
| 2026-05-09 01:20 | 25.38370 | -106.32020 | 41349 ft | 492 kts | 136° |
| 2026-05-09 01:20 | 25.34283 | -106.26000 | 41346 ft | 490 kts | 136° |
| 2026-05-09 01:21 | 25.30194 | -106.19988 | 41361 ft | 494 kts | 136° |
| 2026-05-09 01:21 | 25.26091 | -106.13953 | 41383 ft | 489 kts | 136° |
| 2026-05-09 01:22 | 25.22017 | -106.07971 | 41400 ft | 491 kts | 136° |
| 2026-05-09 01:22 | 25.17920 | -106.01960 | 41421 ft | 488 kts | 136° |
| 2026-05-09 01:23 | 25.13851 | -105.95998 | 41414 ft | 488 kts | 136° |
| 2026-05-09 01:23 | 25.09729 | -105.89970 | 41421 ft | 492 kts | 136° |
| 2026-05-09 01:24 | 25.05678 | -105.84043 | 41426 ft | 486 kts | 136° |
| 2026-05-09 01:24 | 25.01578 | -105.78055 | 41424 ft | 487 kts | 136° |
| 2026-05-09 01:25 | 24.97498 | -105.72102 | 41409 ft | 491 kts | 136° |
| 2026-05-09 01:25 | 24.93391 | -105.66114 | 41402 ft | 488 kts | 136° |
| 2026-05-09 01:26 | 24.89297 | -105.60154 | 41395 ft | 489 kts | 136° |
| 2026-05-09 01:26 | 24.85201 | -105.54198 | 41390 ft | 488 kts | 136° |
| 2026-05-09 01:27 | 24.81106 | -105.48253 | 41387 ft | 489 kts | 136° |
| 2026-05-09 01:27 | 24.76989 | -105.42282 | 41389 ft | 491 kts | 136° |
| 2026-05-09 01:28 | 24.72878 | -105.36325 | 41383 ft | 488 kts | 136° |
| 2026-05-09 01:28 | 24.68788 | -105.30405 | 41357 ft | 487 kts | 136° |
| 2026-05-09 01:29 | 24.64681 | -105.24474 | 41348 ft | 490 kts | 136° |
| 2026-05-09 01:29 | 24.60575 | -105.18552 | 41358 ft | 488 kts | 136° |
| 2026-05-09 01:30 | 24.56443 | -105.12604 | 41369 ft | 488 kts | 136° |
| 2026-05-09 01:30 | 24.52336 | -105.06700 | 41385 ft | 490 kts | 136° |
| 2026-05-09 01:31 | 24.48201 | -105.00761 | 41403 ft | 491 kts | 136° |
| 2026-05-09 01:31 | 24.44066 | -104.94827 | 41395 ft | 487 kts | 136° |
| 2026-05-09 01:32 | 24.39937 | -104.88912 | 41383 ft | 489 kts | 136° |
| 2026-05-09 01:32 | 24.35840 | -104.83050 | 41371 ft | 489 kts | 136° |
| 2026-05-09 01:33 | 24.31697 | -104.77127 | 41333 ft | 487 kts | 136° |
| 2026-05-09 01:33 | 24.27600 | -104.71278 | 41307 ft | 487 kts | 136° |
| 2026-05-09 01:34 | 24.23447 | -104.65360 | 41283 ft | 491 kts | 136° |
| 2026-05-09 01:34 | 24.19323 | -104.59484 | 41264 ft | 487 kts | 136° |
| 2026-05-09 01:35 | 24.15201 | -104.53620 | 41221 ft | 488 kts | 136° |
| 2026-05-09 01:35 | 24.11101 | -104.47679 | 41209 ft | 490 kts | 134° |
| 2026-05-09 01:36 | 24.07073 | -104.41685 | 41227 ft | 492 kts | 134° |
| 2026-05-09 01:36 | 24.03043 | -104.35701 | 41233 ft | 489 kts | 134° |
| 2026-05-09 01:37 | 23.98997 | -104.29711 | 41258 ft | 489 kts | 135° |
| 2026-05-09 01:37 | 23.94962 | -104.23747 | 41260 ft | 488 kts | 135° |
| 2026-05-09 01:38 | 23.90904 | -104.17759 | 41271 ft | 489 kts | 135° |
| 2026-05-09 01:38 | 23.86856 | -104.11792 | 41279 ft | 489 kts | 135° |
| 2026-05-09 01:39 | 23.82808 | -104.05833 | 41298 ft | 489 kts | 135° |
| 2026-05-09 01:39 | 23.78773 | -103.99901 | 41296 ft | 489 kts | 135° |
| 2026-05-09 01:40 | 23.74724 | -103.93957 | 41309 ft | 490 kts | 135° |
| 2026-05-09 01:40 | 23.70657 | -103.87991 | 41328 ft | 488 kts | 135° |
| 2026-05-09 01:41 | 23.66617 | -103.82061 | 41340 ft | 491 kts | 135° |
| 2026-05-09 01:41 | 23.62562 | -103.76115 | 41347 ft | 491 kts | 135° |
| 2026-05-09 01:42 | 23.58455 | -103.70124 | 41353 ft | 491 kts | 135° |
| 2026-05-09 01:42 | 23.54391 | -103.64201 | 41369 ft | 490 kts | 135° |
| 2026-05-09 01:43 | 23.50297 | -103.58240 | 41385 ft | 491 kts | 134° |
| 2026-05-09 01:43 | 23.46248 | -103.52340 | 41402 ft | 488 kts | 135° |
| 2026-05-09 01:44 | 23.42174 | -103.46413 | 41405 ft | 489 kts | 134° |
| 2026-05-09 01:44 | 23.38092 | -103.40482 | 41392 ft | 490 kts | 134° |
| 2026-05-09 01:45 | 23.33992 | -103.34528 | 41390 ft | 490 kts | 135° |
| 2026-05-09 01:45 | 23.29923 | -103.28629 | 41363 ft | 489 kts | 135° |
| 2026-05-09 01:46 | 23.25813 | -103.22678 | 41359 ft | 491 kts | 135° |
| 2026-05-09 01:46 | 23.21715 | -103.16750 | 41371 ft | 492 kts | 134° |
| 2026-05-09 01:47 | 23.17617 | -103.10828 | 41380 ft | 491 kts | 135° |
| 2026-05-09 01:47 | 23.13517 | -103.04911 | 41391 ft | 491 kts | 134° |
| 2026-05-09 01:48 | 23.09428 | -102.99020 | 41426 ft | 491 kts | 135° |
| 2026-05-09 01:48 | 23.05308 | -102.93091 | 41420 ft | 492 kts | 135° |
| 2026-05-09 01:49 | 23.01190 | -102.87169 | 41418 ft | 491 kts | 135° |
| 2026-05-09 01:49 | 22.97078 | -102.81265 | 41406 ft | 491 kts | 134° |
| 2026-05-09 01:50 | 22.92973 | -102.75378 | 41391 ft | 492 kts | 134° |
| 2026-05-09 01:50 | 22.88653 | -102.69724 | 41387 ft | 479 kts | 144° |
| 2026-05-09 01:51 | 22.83367 | -102.65449 | 41383 ft | 470 kts | 154° |
| 2026-05-09 01:51 | 22.77956 | -102.61543 | 41384 ft | 469 kts | 154° |
| 2026-05-09 01:52 | 22.72517 | -102.57627 | 41385 ft | 470 kts | 154° |
| 2026-05-09 01:52 | 22.67079 | -102.53715 | 41385 ft | 470 kts | 154° |
| 2026-05-09 01:53 | 22.61603 | -102.49780 | 41384 ft | 470 kts | 153° |
| 2026-05-09 01:53 | 22.56176 | -102.45884 | 41383 ft | 468 kts | 153° |
| 2026-05-09 01:54 | 22.50723 | -102.41974 | 41377 ft | 471 kts | 153° |
| 2026-05-09 01:54 | 22.45269 | -102.38066 | 41367 ft | 471 kts | 153° |
| 2026-05-09 01:55 | 22.39823 | -102.34167 | 41346 ft | 471 kts | 154° |
| 2026-05-09 01:55 | 22.34328 | -102.30238 | 41331 ft | 473 kts | 154° |
| 2026-05-09 01:56 | 22.28837 | -102.26314 | 41318 ft | 470 kts | 153° |
| 2026-05-09 01:56 | 22.23376 | -102.22417 | 41304 ft | 473 kts | 153° |
| 2026-05-09 01:57 | 22.17896 | -102.18509 | 41306 ft | 471 kts | 153° |
| 2026-05-09 01:57 | 22.12431 | -102.14616 | 41309 ft | 472 kts | 153° |
| 2026-05-09 01:58 | 22.06954 | -102.10718 | 41314 ft | 472 kts | 153° |
| 2026-05-09 01:58 | 22.01446 | -102.06802 | 41319 ft | 472 kts | 153° |
| 2026-05-09 01:59 | 21.95950 | -102.02898 | 41317 ft | 474 kts | 153° |
| 2026-05-09 01:59 | 21.90472 | -101.99010 | 41319 ft | 474 kts | 153° |
| 2026-05-09 02:00 | 21.84972 | -101.95110 | 41329 ft | 473 kts | 153° |
| 2026-05-09 02:00 | 21.79457 | -101.91203 | 41326 ft | 476 kts | 153° |
| 2026-05-09 02:01 | 21.73927 | -101.87289 | 41331 ft | 474 kts | 153° |
| 2026-05-09 02:01 | 21.68416 | -101.83392 | 41323 ft | 474 kts | 153° |
| 2026-05-09 02:02 | 21.62917 | -101.79507 | 41329 ft | 472 kts | 153° |
| 2026-05-09 02:02 | 21.57544 | -101.75404 | 41327 ft | 482 kts | 143° |
| 2026-05-09 02:03 | 21.53219 | -101.69817 | 41331 ft | 496 kts | 129° |
| 2026-05-09 02:03 | 21.49419 | -101.63628 | 41326 ft | 494 kts | 129° |
| 2026-05-09 02:04 | 21.45634 | -101.57464 | 41346 ft | 496 kts | 129° |
| 2026-05-09 02:04 | 21.41843 | -101.51304 | 41372 ft | 496 kts | 128° |
| 2026-05-09 02:05 | 21.38064 | -101.45174 | 41389 ft | 497 kts | 129° |
| 2026-05-09 02:05 | 21.34241 | -101.38984 | 41394 ft | 496 kts | 129° |
| 2026-05-09 02:06 | 21.30427 | -101.32816 | 41385 ft | 495 kts | 129° |
| 2026-05-09 02:07 | 21.24751 | -101.23650 | 41383 ft | 493 kts | 129° |
| 2026-05-09 02:07 | 21.20954 | -101.17528 | 41364 ft | 494 kts | 129° |
| 2026-05-09 02:08 | 21.17156 | -101.11410 | 41359 ft | 493 kts | 128° |
| 2026-05-09 02:08 | 21.13357 | -101.05299 | 41339 ft | 492 kts | 128° |
| 2026-05-09 02:09 | 21.09564 | -100.99204 | 41327 ft | 492 kts | 128° |
| 2026-05-09 02:09 | 21.05718 | -100.93149 | 41321 ft | 490 kts | 131° |
| 2026-05-09 02:10 | 21.01532 | -100.87389 | 41308 ft | 488 kts | 134° |
| 2026-05-09 02:10 | 20.97338 | -100.81679 | 41307 ft | 491 kts | 132° |
| 2026-05-09 02:11 | 20.93220 | -100.75919 | 41304 ft | 491 kts | 132° |
| 2026-05-09 02:11 | 20.89050 | -100.70091 | 41315 ft | 489 kts | 132° |
| 2026-05-09 02:12 | 20.84907 | -100.64307 | 41321 ft | 490 kts | 131° |
| 2026-05-09 02:12 | 20.80798 | -100.58577 | 41330 ft | 489 kts | 131° |
| 2026-05-09 02:13 | 20.76650 | -100.52798 | 41330 ft | 489 kts | 131° |
| 2026-05-09 02:13 | 20.72517 | -100.47047 | 41322 ft | 489 kts | 131° |
| 2026-05-09 02:14 | 20.68388 | -100.41307 | 41312 ft | 488 kts | 131° |
| 2026-05-09 02:14 | 20.64228 | -100.35531 | 41278 ft | 491 kts | 131° |
| 2026-05-09 02:15 | 20.60145 | -100.29863 | 40531 ft | 477 kts | 131° |
| 2026-05-09 02:15 | 20.58106 | -100.27039 | 39079 ft | 484 kts | 131° |
| 2026-05-09 02:15 | 20.56056 | -100.24200 | 38054 ft | 484 kts | 131° |
| 2026-05-09 02:15 | 20.54002 | -100.21357 | 37226 ft | 482 kts | 131° |
| 2026-05-09 02:16 | 20.51980 | -100.18559 | 36361 ft | 482 kts | 131° |
| 2026-05-09 02:16 | 20.49943 | -100.15743 | 35461 ft | 482 kts | 131° |
| 2026-05-09 02:16 | 20.47877 | -100.12888 | 34511 ft | 483 kts | 130° |
| 2026-05-09 02:16 | 20.45847 | -100.10085 | 33601 ft | 484 kts | 130° |
| 2026-05-09 02:17 | 20.43772 | -100.07220 | 32639 ft | 498 kts | 130° |
| 2026-05-09 02:17 | 20.41623 | -100.04260 | 31693 ft | 512 kts | 130° |
| 2026-05-09 02:17 | 20.39450 | -100.01263 | 30770 ft | 512 kts | 129° |
| 2026-05-09 02:17 | 20.37296 | -99.98293 | 30228 ft | 503 kts | 130° |
| 2026-05-09 02:18 | 20.35179 | -99.95379 | 29689 ft | 494 kts | 130° |
| 2026-05-09 02:18 | 20.33102 | -99.92526 | 29107 ft | 487 kts | 130° |
| 2026-05-09 02:18 | 20.31030 | -99.89681 | 28492 ft | 481 kts | 130° |
| 2026-05-09 02:18 | 20.28996 | -99.86890 | 27879 ft | 476 kts | 130° |
| 2026-05-09 02:19 | 20.26971 | -99.84112 | 27257 ft | 471 kts | 129° |
| 2026-05-09 02:19 | 20.24965 | -99.81438 | 26623 ft | 466 kts | 134° |
| 2026-05-09 02:19 | 20.22627 | -99.79065 | 26039 ft | 457 kts | 143° |
| 2026-05-09 02:19 | 20.20124 | -99.77016 | 25475 ft | 451 kts | 145° |
| 2026-05-09 02:20 | 20.17644 | -99.75036 | 24852 ft | 447 kts | 145° |
| 2026-05-09 02:20 | 20.15171 | -99.73064 | 24225 ft | 443 kts | 145° |
| 2026-05-09 02:20 | 20.12707 | -99.71101 | 23578 ft | 439 kts | 145° |
| 2026-05-09 02:20 | 20.10282 | -99.69169 | 22960 ft | 436 kts | 145° |
| 2026-05-09 02:21 | 20.07856 | -99.67236 | 22371 ft | 431 kts | 144° |
| 2026-05-09 02:21 | 20.05478 | -99.65342 | 22061 ft | 417 kts | 145° |
| 2026-05-09 02:21 | 20.03213 | -99.63537 | 21926 ft | 399 kts | 145° |
| 2026-05-09 02:21 | 20.01042 | -99.61807 | 21746 ft | 385 kts | 145° |
| 2026-05-09 02:22 | 19.98904 | -99.60106 | 21318 ft | 382 kts | 145° |
| 2026-05-09 02:22 | 19.96771 | -99.58410 | 20806 ft | 382 kts | 144° |
| 2026-05-09 02:22 | 19.94671 | -99.56740 | 20337 ft | 379 kts | 145° |
| 2026-05-09 02:22 | 19.92556 | -99.55058 | 19882 ft | 377 kts | 145° |
| 2026-05-09 02:23 | 19.90470 | -99.53401 | 19437 ft | 374 kts | 144° |
| 2026-05-09 02:23 | 19.88387 | -99.51746 | 18955 ft | 370 kts | 144° |
| 2026-05-09 02:23 | 19.86344 | -99.50123 | 18366 ft | 369 kts | 144° |
| 2026-05-09 02:23 | 19.84305 | -99.48504 | 17815 ft | 365 kts | 144° |
| 2026-05-09 02:24 | 19.82257 | -99.46877 | 17266 ft | 362 kts | 144° |
| 2026-05-09 02:24 | 19.80269 | -99.45299 | 16717 ft | 358 kts | 144° |
| 2026-05-09 02:24 | 19.78292 | -99.43729 | 16198 ft | 355 kts | 144° |
| 2026-05-09 02:24 | 19.76334 | -99.42175 | 16007 ft | 340 kts | 144° |
| 2026-05-09 02:25 | 19.74500 | -99.40718 | 15985 ft | 322 kts | 144° |
| 2026-05-09 02:25 | 19.72735 | -99.39316 | 15987 ft | 304 kts | 145° |
| 2026-05-09 02:25 | 19.71085 | -99.38006 | 15982 ft | 288 kts | 145° |
| 2026-05-09 02:25 | 19.69525 | -99.36768 | 15856 ft | 276 kts | 145° |
| 2026-05-09 02:26 | 19.67991 | -99.35553 | 15551 ft | 273 kts | 145° |
| 2026-05-09 02:26 | 19.66464 | -99.34345 | 15204 ft | 273 kts | 145° |
| 2026-05-09 02:26 | 19.64953 | -99.33148 | 14926 ft | 270 kts | 146° |
| 2026-05-09 02:26 | 19.63452 | -99.31959 | 14623 ft | 268 kts | 146° |
| 2026-05-09 02:27 | 19.61961 | -99.30776 | 14375 ft | 267 kts | 146° |
| 2026-05-09 02:27 | 19.60489 | -99.29605 | 14220 ft | 266 kts | 146° |
| 2026-05-09 02:27 | 19.59022 | -99.28426 | 14064 ft | 263 kts | 146° |
| 2026-05-09 02:27 | 19.57525 | -99.27268 | 13746 ft | 265 kts | 147° |
| 2026-05-09 02:28 | 19.56036 | -99.26118 | 13412 ft | 268 kts | 146° |
| 2026-05-09 02:28 | 19.54536 | -99.24954 | 13057 ft | 266 kts | 146° |
| 2026-05-09 02:28 | 19.52983 | -99.23935 | 12723 ft | 259 kts | 162° |
| 2026-05-09 02:28 | 19.51252 | -99.23576 | 12417 ft | 250 kts | 177° |
| 2026-05-09 02:29 | 19.49517 | -99.23483 | 12140 ft | 242 kts | 181° |
| 2026-05-09 02:29 | 19.47863 | -99.23449 | 11862 ft | 233 kts | 181° |
| 2026-05-09 02:29 | 19.46281 | -99.23422 | 11608 ft | 224 kts | 181° |
| 2026-05-09 02:29 | 19.44738 | -99.23395 | 11353 ft | 217 kts | 181° |
| 2026-05-09 02:30 | 19.43259 | -99.23369 | 11115 ft | 210 kts | 181° |
| 2026-05-09 02:30 | 19.41810 | -99.23343 | 10875 ft | 205 kts | 181° |
| 2026-05-09 02:30 | 19.40390 | -99.23280 | 10646 ft | 200 kts | 173° |
| 2026-05-09 02:30 | 19.39069 | -99.22829 | 10393 ft | 198 kts | 152° |
| 2026-05-09 02:31 | 19.38029 | -99.21913 | 10124 ft | 197 kts | 130° |
| 2026-05-09 02:31 | 19.37370 | -99.20651 | 9846 ft | 195 kts | 108° |
| 2026-05-09 02:31 | 19.37169 | -99.19257 | 9588 ft | 192 kts | 92° |
| 2026-05-09 02:31 | 19.37374 | -99.17917 | 9337 ft | 179 kts | 63° |
| 2026-05-09 02:32 | 19.38030 | -99.16822 | 9113 ft | 170 kts | 57° |
| 2026-05-09 02:32 | 19.38625 | -99.15803 | 8932 ft | 159 kts | 59° |
| 2026-05-09 02:32 | 19.39179 | -99.14806 | 8740 ft | 156 kts | 59° |
| 2026-05-09 02:32 | 19.39738 | -99.13814 | 8545 ft | 155 kts | 59° |
| 2026-05-09 02:33 | 19.40278 | -99.12850 | 8360 ft | 154 kts | 59° |
| 2026-05-09 02:33 | 19.40827 | -99.11876 | 8168 ft | 153 kts | 59° |
| 2026-05-09 02:33 | 19.41373 | -99.10915 | 7955 ft | 152 kts | 58° |
| 2026-05-09 02:33 | 19.41915 | -99.09952 | 7712 ft | 151 kts | 58° |
| 2026-05-09 02:34 | 19.42452 | -99.09009 | 7524 ft | 149 kts | 58° |
| 2026-05-09 02:34 | 19.42994 | -99.08054 | 7376 ft | 150 kts | 58° |
| 2026-05-09 02:34 | 19.43495 | -99.07173 | 7349 ft | 125 kts | 59° |
| 2026-05-09 02:34 | 19.43892 | -99.06466 | 7348 ft | 97 kts | 59° |
| 2026-05-09 02:35 | 19.44061 | -99.06242 | 7348 ft | 21 kts | 30° |
| 2026-05-09 02:35 | 19.44169 | -99.06190 | 7348 ft | 12 kts | 19° |
| 2026-05-09 02:35 | 19.44226 | -99.06172 | 7348 ft | 5 kts | 11° |
| 2026-05-09 02:35 | 19.44248 | -99.06168 | 7347 ft | 1 kts | 8° |
| 2026-05-09 02:36 | 19.44256 | -99.06167 | 7347 ft | 1 kts | 6° |
| 2026-05-09 02:36 | 19.44287 | -99.06165 | 7347 ft | 7 kts | 4° |
| 2026-05-09 02:36 | 19.44355 | -99.06175 | 7347 ft | 12 kts | 335° |
| 2026-05-09 02:36 | 19.44414 | -99.06263 | 7347 ft | 16 kts | 287° |
| 2026-05-09 02:37 | 19.44391 | -99.06379 | 7348 ft | 13 kts | 239° |
| 2026-05-09 02:37 | 19.44334 | -99.06480 | 7348 ft | 18 kts | 239° |
| 2026-05-09 02:37 | 19.44258 | -99.06616 | 7348 ft | 23 kts | 239° |
| 2026-05-09 02:37 | 19.44175 | -99.06764 | 7348 ft | 11 kts | 239° |
| 2026-05-09 02:38 | 19.44144 | -99.06817 | 7348 ft | 6 kts | 237° |
| 2026-05-09 02:38 | 19.44116 | -99.06862 | 7348 ft | 7 kts | 235° |
| 2026-05-09 02:38 | 19.44086 | -99.06911 | 7348 ft | 7 kts | 240° |
| 2026-05-09 02:38 | 19.44063 | -99.06954 | 7348 ft | 6 kts | 240° |
| 2026-05-09 02:39 | 19.44041 | -99.06995 | 7348 ft | 7 kts | 240° |
| 2026-05-09 02:39 | 19.44013 | -99.07048 | 7348 ft | 9 kts | 242° |
| 2026-05-09 02:39 | 19.43978 | -99.07116 | 7349 ft | 11 kts | 241° |
| 2026-05-09 02:39 | 19.43933 | -99.07197 | 7349 ft | 13 kts | 239° |
| 2026-05-09 02:40 | 19.43880 | -99.07287 | 7349 ft | 15 kts | 238° |
| 2026-05-09 02:40 | 19.43820 | -99.07388 | 7349 ft | 16 kts | 239° |
| 2026-05-09 02:40 | 19.43764 | -99.07492 | 7349 ft | 16 kts | 239° |
| 2026-05-09 02:40 | 19.43709 | -99.07591 | 7349 ft | 15 kts | 240° |
| 2026-05-09 02:41 | 19.43656 | -99.07689 | 7349 ft | 15 kts | 238° |
| 2026-05-09 02:41 | 19.43608 | -99.07769 | 7349 ft | 14 kts | 238° |
| 2026-05-09 02:41 | 19.43551 | -99.07871 | 7350 ft | 14 kts | 240° |
| 2026-05-09 02:41 | 19.43503 | -99.07960 | 7350 ft | 13 kts | 239° |
| 2026-05-09 02:42 | 19.43463 | -99.08033 | 7350 ft | 8 kts | 246° |
| 2026-05-09 02:42 | 19.43442 | -99.08067 | 7350 ft | 6 kts | 233° |
| 2026-05-09 02:42 | 19.43418 | -99.08106 | 7350 ft | 6 kts | 240° |
| 2026-05-09 02:42 | 19.43393 | -99.08152 | 7350 ft | 7 kts | 239° |
| 2026-05-09 02:43 | 19.43375 | -99.08205 | 7350 ft | 7 kts | 268° |
| 2026-05-09 02:43 | 19.43390 | -99.08240 | 7350 ft | 4 kts | 322° |
| 2026-05-09 02:43 | 19.43413 | -99.08251 | 7350 ft | 3 kts | 334° |
| 2026-05-09 02:43 | 19.43432 | -99.08262 | 7350 ft | 1 kts | 330° |